sensor_id;sensor_type;location;lat;lon;timestamp;P1;durP1;ratioP1;P2;durP2;ratioP2
11572;SDS011;5842;52.426;4.886;2023-01-24T00:00:22;25.63;;;14.80;;
11572;SDS011;5842;52.426;4.886;2023-01-24T00:02:49;23.00;;;14.17;;
11572;SDS011;5842;52.426;4.886;2023-01-24T00:05:19;21.73;;;14.10;;
11572;SDS011;5842;52.426;4.886;2023-01-24T00:07:46;24.93;;;15.13;;
11572;SDS011;5842;52.426;4.886;2023-01-24T00:10:15;22.10;;;14.60;;
11572;SDS011;5842;52.426;4.886;2023-01-24T00:12:42;22.10;;;14.30;;
11572;SDS011;5842;52.426;4.886;2023-01-24T00:15:25;22.60;;;14.40;;
11572;SDS011;5842;52.426;4.886;2023-01-24T00:18:06;25.80;;;14.73;;
11572;SDS011;5842;52.426;4.886;2023-01-24T00:20:44;25.00;;;15.03;;
11572;SDS011;5842;52.426;4.886;2023-01-24T00:23:26;25.13;;;15.53;;
11572;SDS011;5842;52.426;4.886;2023-01-24T00:26:15;27.83;;;15.53;;
11572;SDS011;5842;52.426;4.886;2023-01-24T00:28:53;26.57;;;16.37;;
11572;SDS011;5842;52.426;4.886;2023-01-24T00:31:23;24.67;;;14.70;;
11572;SDS011;5842;52.426;4.886;2023-01-24T00:34:15;24.40;;;14.13;;
11572;SDS011;5842;52.426;4.886;2023-01-24T00:37:02;22.07;;;13.83;;
11572;SDS011;5842;52.426;4.886;2023-01-24T00:39:32;23.27;;;14.17;;
11572;SDS011;5842;52.426;4.886;2023-01-24T00:42:07;22.23;;;13.57;;
11572;SDS011;5842;52.426;4.886;2023-01-24T00:44:44;23.00;;;14.50;;
11572;SDS011;5842;52.426;4.886;2023-01-24T00:47:29;21.50;;;13.33;;
11572;SDS011;5842;52.426;4.886;2023-01-24T00:50:23;23.90;;;14.10;;
11572;SDS011;5842;52.426;4.886;2023-01-24T00:52:59;21.30;;;13.67;;
11572;SDS011;5842;52.426;4.886;2023-01-24T00:55:47;20.67;;;13.23;;
11572;SDS011;5842;52.426;4.886;2023-01-24T00:58:22;22.73;;;13.90;;
11572;SDS011;5842;52.426;4.886;2023-01-24T01:00:54;20.80;;;13.27;;
11572;SDS011;5842;52.426;4.886;2023-01-24T01:03:33;21.20;;;13.60;;
11572;SDS011;5842;52.426;4.886;2023-01-24T01:06:02;21.87;;;13.90;;
11572;SDS011;5842;52.426;4.886;2023-01-24T01:08:36;22.00;;;13.43;;
11572;SDS011;5842;52.426;4.886;2023-01-24T01:11:04;23.00;;;14.73;;
11572;SDS011;5842;52.426;4.886;2023-01-24T01:13:34;22.43;;;14.17;;
11572;SDS011;5842;52.426;4.886;2023-01-24T01:16:02;21.53;;;13.40;;
11572;SDS011;5842;52.426;4.886;2023-01-24T01:18:30;22.43;;;14.13;;
11572;SDS011;5842;52.426;4.886;2023-01-24T01:20:59;22.67;;;13.67;;
11572;SDS011;5842;52.426;4.886;2023-01-24T01:23:27;21.50;;;13.60;;
11572;SDS011;5842;52.426;4.886;2023-01-24T01:25:57;21.80;;;13.90;;
11572;SDS011;5842;52.426;4.886;2023-01-24T01:28:25;22.07;;;13.60;;
11572;SDS011;5842;52.426;4.886;2023-01-24T01:30:53;20.23;;;12.87;;
11572;SDS011;5842;52.426;4.886;2023-01-24T01:33:30;22.40;;;13.87;;
11572;SDS011;5842;52.426;4.886;2023-01-24T01:35:57;23.07;;;13.80;;
11572;SDS011;5842;52.426;4.886;2023-01-24T01:38:26;22.37;;;13.53;;
11572;SDS011;5842;52.426;4.886;2023-01-24T01:40:55;20.47;;;13.13;;
11572;SDS011;5842;52.426;4.886;2023-01-24T01:43:23;23.37;;;13.17;;
11572;SDS011;5842;52.426;4.886;2023-01-24T01:45:54;20.53;;;12.93;;
11572;SDS011;5842;52.426;4.886;2023-01-24T01:48:36;22.63;;;13.33;;
11572;SDS011;5842;52.426;4.886;2023-01-24T01:51:17;23.20;;;13.40;;
11572;SDS011;5842;52.426;4.886;2023-01-24T01:53:49;22.40;;;13.27;;
11572;SDS011;5842;52.426;4.886;2023-01-24T01:56:21;22.03;;;13.33;;
11572;SDS011;5842;52.426;4.886;2023-01-24T01:59:04;23.37;;;13.97;;
11572;SDS011;5842;52.426;4.886;2023-01-24T02:01:34;24.33;;;14.03;;
11572;SDS011;5842;52.426;4.886;2023-01-24T02:04:03;23.63;;;13.93;;
11572;SDS011;5842;52.426;4.886;2023-01-24T02:06:50;23.03;;;13.87;;
11572;SDS011;5842;52.426;4.886;2023-01-24T02:09:30;21.47;;;13.37;;
11572;SDS011;5842;52.426;4.886;2023-01-24T02:12:04;21.07;;;13.10;;
11572;SDS011;5842;52.426;4.886;2023-01-24T02:14:36;22.93;;;14.53;;
11572;SDS011;5842;52.426;4.886;2023-01-24T02:17:22;23.17;;;14.27;;
11572;SDS011;5842;52.426;4.886;2023-01-24T02:19:52;24.37;;;14.77;;
11572;SDS011;5842;52.426;4.886;2023-01-24T02:22:49;24.53;;;15.10;;
11572;SDS011;5842;52.426;4.886;2023-01-24T02:25:34;22.37;;;13.83;;
11572;SDS011;5842;52.426;4.886;2023-01-24T02:31:57;21.43;;;12.73;;
11572;SDS011;5842;52.426;4.886;2023-01-24T02:48:39;22.73;;;13.17;;
11572;SDS011;5842;52.426;4.886;2023-01-24T02:51:12;23.57;;;13.50;;
11572;SDS011;5842;52.426;4.886;2023-01-24T02:53:56;20.60;;;13.63;;
11572;SDS011;5842;52.426;4.886;2023-01-24T02:56:24;20.80;;;13.10;;
11572;SDS011;5842;52.426;4.886;2023-01-24T02:59:08;22.13;;;13.70;;
11572;SDS011;5842;52.426;4.886;2023-01-24T03:01:35;20.90;;;12.87;;
11572;SDS011;5842;52.426;4.886;2023-01-24T03:04:18;22.40;;;13.47;;
11572;SDS011;5842;52.426;4.886;2023-01-24T03:06:46;23.20;;;13.97;;
11572;SDS011;5842;52.426;4.886;2023-01-24T03:09:14;21.70;;;13.83;;
11572;SDS011;5842;52.426;4.886;2023-01-24T03:11:45;23.17;;;13.63;;
11572;SDS011;5842;52.426;4.886;2023-01-24T03:14:15;22.10;;;13.73;;
11572;SDS011;5842;52.426;4.886;2023-01-24T03:17:00;22.87;;;14.37;;
11572;SDS011;5842;52.426;4.886;2023-01-24T03:19:46;25.13;;;15.23;;
11572;SDS011;5842;52.426;4.886;2023-01-24T03:22:30;22.87;;;14.17;;
11572;SDS011;5842;52.426;4.886;2023-01-24T03:25:14;23.53;;;14.87;;
11572;SDS011;5842;52.426;4.886;2023-01-24T03:28:01;23.10;;;14.00;;
11572;SDS011;5842;52.426;4.886;2023-01-24T03:30:46;20.90;;;13.27;;
11572;SDS011;5842;52.426;4.886;2023-01-24T03:33:30;22.23;;;13.80;;
11572;SDS011;5842;52.426;4.886;2023-01-24T03:36:19;20.60;;;13.30;;
11572;SDS011;5842;52.426;4.886;2023-01-24T03:49:32;19.93;;;11.73;;
11572;SDS011;5842;52.426;4.886;2023-01-24T03:52:19;16.83;;;10.67;;
11572;SDS011;5842;52.426;4.886;2023-01-24T04:08:48;19.20;;;11.87;;
11572;SDS011;5842;52.426;4.886;2023-01-24T04:11:15;19.87;;;12.23;;
11572;SDS011;5842;52.426;4.886;2023-01-24T04:13:43;21.40;;;12.57;;
11572;SDS011;5842;52.426;4.886;2023-01-24T04:16:13;20.27;;;12.17;;
11572;SDS011;5842;52.426;4.886;2023-01-24T04:18:55;21.63;;;12.63;;
11572;SDS011;5842;52.426;4.886;2023-01-24T04:28:44;21.03;;;12.50;;
11572;SDS011;5842;52.426;4.886;2023-01-24T04:32:49;22.03;;;12.73;;
11572;SDS011;5842;52.426;4.886;2023-01-24T04:34:48;22.67;;;13.30;;
11572;SDS011;5842;52.426;4.886;2023-01-24T04:37:15;22.67;;;13.63;;
11572;SDS011;5842;52.426;4.886;2023-01-24T04:40:18;22.57;;;14.10;;
11572;SDS011;5842;52.426;4.886;2023-01-24T04:43:14;21.90;;;13.40;;
11572;SDS011;5842;52.426;4.886;2023-01-24T04:49:25;23.77;;;13.83;;
11572;SDS011;5842;52.426;4.886;2023-01-24T04:52:23;22.30;;;14.60;;
11572;SDS011;5842;52.426;4.886;2023-01-24T04:54:50;23.53;;;14.53;;
11572;SDS011;5842;52.426;4.886;2023-01-24T04:57:19;23.53;;;14.73;;
11572;SDS011;5842;52.426;4.886;2023-01-24T04:59:46;23.90;;;14.90;;
11572;SDS011;5842;52.426;4.886;2023-01-24T05:02:15;22.77;;;13.97;;
11572;SDS011;5842;52.426;4.886;2023-01-24T05:04:42;20.73;;;14.17;;
11572;SDS011;5842;52.426;4.886;2023-01-24T05:07:10;24.00;;;14.77;;
11572;SDS011;5842;52.426;4.886;2023-01-24T05:09:38;23.17;;;14.57;;
11572;SDS011;5842;52.426;4.886;2023-01-24T05:12:06;23.70;;;14.70;;
11572;SDS011;5842;52.426;4.886;2023-01-24T05:17:59;22.57;;;14.47;;
11572;SDS011;5842;52.426;4.886;2023-01-24T05:20:26;25.73;;;14.90;;
11572;SDS011;5842;52.426;4.886;2023-01-24T05:22:54;24.03;;;14.67;;
11572;SDS011;5842;52.426;4.886;2023-01-24T05:25:22;23.10;;;14.73;;
11572;SDS011;5842;52.426;4.886;2023-01-24T05:27:50;22.43;;;14.17;;
11572;SDS011;5842;52.426;4.886;2023-01-24T05:30:17;22.40;;;13.77;;
11572;SDS011;5842;52.426;4.886;2023-01-24T05:32:44;22.67;;;14.07;;
11572;SDS011;5842;52.426;4.886;2023-01-24T05:35:13;24.27;;;15.40;;
11572;SDS011;5842;52.426;4.886;2023-01-24T07:38:53;27.70;;;13.63;;
11572;SDS011;5842;52.426;4.886;2023-01-24T07:41:21;23.33;;;13.23;;
11572;SDS011;5842;52.426;4.886;2023-01-24T07:43:52;25.17;;;13.97;;
11572;SDS011;5842;52.426;4.886;2023-01-24T07:46:39;27.40;;;14.57;;
11572;SDS011;5842;52.426;4.886;2023-01-24T07:49:07;23.17;;;13.47;;
11572;SDS011;5842;52.426;4.886;2023-01-24T07:51:48;24.63;;;14.07;;
11572;SDS011;5842;52.426;4.886;2023-01-24T07:54:40;24.07;;;13.60;;
11572;SDS011;5842;52.426;4.886;2023-01-24T07:57:20;24.60;;;13.97;;
11572;SDS011;5842;52.426;4.886;2023-01-24T07:59:53;23.97;;;12.90;;
11572;SDS011;5842;52.426;4.886;2023-01-24T08:02:40;25.00;;;13.70;;
11572;SDS011;5842;52.426;4.886;2023-01-24T08:05:10;24.23;;;13.33;;
11572;SDS011;5842;52.426;4.886;2023-01-24T08:07:37;27.47;;;14.77;;
11572;SDS011;5842;52.426;4.886;2023-01-24T08:10:07;25.37;;;14.67;;
11572;SDS011;5842;52.426;4.886;2023-01-24T08:12:35;27.05;;;16.05;;
11572;SDS011;5842;52.426;4.886;2023-01-24T08:15:03;26.10;;;15.13;;
11572;SDS011;5842;52.426;4.886;2023-01-24T08:17:31;25.97;;;14.90;;
11572;SDS011;5842;52.426;4.886;2023-01-24T08:19:58;24.70;;;14.00;;
11572;SDS011;5842;52.426;4.886;2023-01-24T08:22:25;24.97;;;13.50;;
11572;SDS011;5842;52.426;4.886;2023-01-24T08:24:58;24.43;;;14.27;;
11572;SDS011;5842;52.426;4.886;2023-01-24T08:27:43;23.83;;;13.43;;
11572;SDS011;5842;52.426;4.886;2023-01-24T08:30:20;25.47;;;14.60;;
11572;SDS011;5842;52.426;4.886;2023-01-24T08:33:04;27.73;;;15.13;;
11572;SDS011;5842;52.426;4.886;2023-01-24T08:35:42;25.90;;;14.77;;
11572;SDS011;5842;52.426;4.886;2023-01-24T08:38:27;23.93;;;14.20;;
11572;SDS011;5842;52.426;4.886;2023-01-24T08:41:07;25.80;;;15.00;;
11572;SDS011;5842;52.426;4.886;2023-01-24T08:43:38;29.03;;;15.73;;
11572;SDS011;5842;52.426;4.886;2023-01-24T08:46:05;26.27;;;15.20;;
11572;SDS011;5842;52.426;4.886;2023-01-24T08:48:33;24.47;;;13.83;;
11572;SDS011;5842;52.426;4.886;2023-01-24T08:51:02;25.43;;;14.10;;
11572;SDS011;5842;52.426;4.886;2023-01-24T08:53:30;24.93;;;14.97;;
11572;SDS011;5842;52.426;4.886;2023-01-24T08:55:58;26.57;;;15.57;;
11572;SDS011;5842;52.426;4.886;2023-01-24T08:58:25;25.87;;;14.67;;
11572;SDS011;5842;52.426;4.886;2023-01-24T09:00:55;24.90;;;14.50;;
11572;SDS011;5842;52.426;4.886;2023-01-24T09:03:27;28.63;;;15.13;;
11572;SDS011;5842;52.426;4.886;2023-01-24T09:05:56;23.97;;;14.07;;
11572;SDS011;5842;52.426;4.886;2023-01-24T09:08:25;24.77;;;14.57;;
11572;SDS011;5842;52.426;4.886;2023-01-24T09:10:53;26.57;;;14.40;;
11572;SDS011;5842;52.426;4.886;2023-01-24T09:13:20;23.30;;;13.33;;
11572;SDS011;5842;52.426;4.886;2023-01-24T09:15:48;24.70;;;14.40;;
11572;SDS011;5842;52.426;4.886;2023-01-24T09:18:17;23.00;;;13.70;;
11572;SDS011;5842;52.426;4.886;2023-01-24T09:20:47;22.73;;;12.93;;
11572;SDS011;5842;52.426;4.886;2023-01-24T09:23:14;23.57;;;13.73;;
11572;SDS011;5842;52.426;4.886;2023-01-24T09:25:48;21.97;;;12.87;;
11572;SDS011;5842;52.426;4.886;2023-01-24T09:28:16;23.97;;;13.73;;
11572;SDS011;5842;52.426;4.886;2023-01-24T09:30:45;20.07;;;12.73;;
11572;SDS011;5842;52.426;4.886;2023-01-24T09:33:14;22.20;;;12.90;;
11572;SDS011;5842;52.426;4.886;2023-01-24T09:35:43;22.17;;;13.57;;
11572;SDS011;5842;52.426;4.886;2023-01-24T09:38:18;23.47;;;13.77;;
11572;SDS011;5842;52.426;4.886;2023-01-24T09:40:50;25.00;;;13.80;;
11572;SDS011;5842;52.426;4.886;2023-01-24T09:43:30;24.03;;;13.63;;
11572;SDS011;5842;52.426;4.886;2023-01-24T09:46:13;22.93;;;14.07;;
11572;SDS011;5842;52.426;4.886;2023-01-24T09:48:46;22.13;;;13.87;;
11572;SDS011;5842;52.426;4.886;2023-01-24T09:51:17;21.13;;;13.00;;
11572;SDS011;5842;52.426;4.886;2023-01-24T09:53:49;24.90;;;14.37;;
11572;SDS011;5842;52.426;4.886;2023-01-24T09:56:21;22.43;;;14.27;;
11572;SDS011;5842;52.426;4.886;2023-01-24T09:58:57;23.40;;;14.73;;
11572;SDS011;5842;52.426;4.886;2023-01-24T10:01:40;25.67;;;15.50;;
11572;SDS011;5842;52.426;4.886;2023-01-24T10:04:45;24.73;;;14.13;;
11572;SDS011;5842;52.426;4.886;2023-01-24T11:12:29;25.03;;;14.93;;
11572;SDS011;5842;52.426;4.886;2023-01-24T11:15:33;23.90;;;14.30;;
11572;SDS011;5842;52.426;4.886;2023-01-24T11:18:35;24.73;;;14.97;;
11572;SDS011;5842;52.426;4.886;2023-01-24T11:21:31;21.80;;;14.10;;
11572;SDS011;5842;52.426;4.886;2023-01-24T11:24:41;22.00;;;13.73;;
11572;SDS011;5842;52.426;4.886;2023-01-24T11:27:45;22.30;;;14.60;;
11572;SDS011;5842;52.426;4.886;2023-01-24T13:19:43;26.77;;;16.40;;
11572;SDS011;5842;52.426;4.886;2023-01-24T13:22:39;26.37;;;16.90;;
11572;SDS011;5842;52.426;4.886;2023-01-24T13:28:16;27.23;;;16.17;;
11572;SDS011;5842;52.426;4.886;2023-01-24T14:23:23;32.40;;;18.00;;
11572;SDS011;5842;52.426;4.886;2023-01-24T14:26:15;32.87;;;19.17;;
11572;SDS011;5842;52.426;4.886;2023-01-24T14:39:49;35.23;;;19.47;;
11572;SDS011;5842;52.426;4.886;2023-01-24T14:42:29;37.13;;;20.27;;
11572;SDS011;5842;52.426;4.886;2023-01-24T14:44:59;31.67;;;18.70;;
11572;SDS011;5842;52.426;4.886;2023-01-24T14:47:51;34.07;;;19.37;;
11572;SDS011;5842;52.426;4.886;2023-01-24T14:50:35;34.07;;;19.60;;
11572;SDS011;5842;52.426;4.886;2023-01-24T15:31:22;36.43;;;19.70;;
11572;SDS011;5842;52.426;4.886;2023-01-24T15:51:37;37.67;;;20.43;;
11572;SDS011;5842;52.426;4.886;2023-01-24T16:11:42;35.57;;;19.47;;
11572;SDS011;5842;52.426;4.886;2023-01-24T16:14:50;39.67;;;20.17;;
11572;SDS011;5842;52.426;4.886;2023-01-24T16:31:18;35.23;;;20.30;;
11572;SDS011;5842;52.426;4.886;2023-01-24T16:34:15;37.03;;;21.40;;
11572;SDS011;5842;52.426;4.886;2023-01-24T16:36:43;32.17;;;18.33;;
11572;SDS011;5842;52.426;4.886;2023-01-24T16:39:17;33.17;;;19.20;;
11572;SDS011;5842;52.426;4.886;2023-01-24T16:45:44;35.20;;;18.73;;
11572;SDS011;5842;52.426;4.886;2023-01-24T16:48:38;35.43;;;19.07;;
11572;SDS011;5842;52.426;4.886;2023-01-24T16:51:19;33.23;;;18.07;;
11572;SDS011;5842;52.426;4.886;2023-01-24T18:26:19;31.03;;;16.77;;
11572;SDS011;5842;52.426;4.886;2023-01-24T18:28:58;32.20;;;17.73;;
11572;SDS011;5842;52.426;4.886;2023-01-24T18:31:48;31.30;;;18.03;;
11572;SDS011;5842;52.426;4.886;2023-01-24T18:35:02;34.47;;;18.53;;
11572;SDS011;5842;52.426;4.886;2023-01-24T18:38:09;32.33;;;17.90;;
11572;SDS011;5842;52.426;4.886;2023-01-24T18:44:45;31.50;;;16.80;;
11572;SDS011;5842;52.426;4.886;2023-01-24T18:47:39;30.27;;;17.43;;
11572;SDS011;5842;52.426;4.886;2023-01-24T19:32:03;38.50;;;21.10;;
11572;SDS011;5842;52.426;4.886;2023-01-24T19:34:44;32.27;;;18.73;;
11572;SDS011;5842;52.426;4.886;2023-01-24T19:37:32;35.77;;;18.27;;
11572;SDS011;5842;52.426;4.886;2023-01-24T19:40:47;38.90;;;20.53;;
11572;SDS011;5842;52.426;4.886;2023-01-24T19:43:16;36.83;;;20.80;;
11572;SDS011;5842;52.426;4.886;2023-01-24T19:49:31;35.80;;;18.93;;
11572;SDS011;5842;52.426;4.886;2023-01-24T19:52:08;36.40;;;20.23;;
11572;SDS011;5842;52.426;4.886;2023-01-24T19:54:45;35.40;;;20.60;;
11572;SDS011;5842;52.426;4.886;2023-01-24T19:57:39;32.83;;;18.40;;
11572;SDS011;5842;52.426;4.886;2023-01-24T20:45:03;38.97;;;20.67;;
11572;SDS011;5842;52.426;4.886;2023-01-24T21:31:48;40.53;;;21.00;;
11572;SDS011;5842;52.426;4.886;2023-01-24T21:56:23;40.77;;;21.03;;
11572;SDS011;5842;52.426;4.886;2023-01-24T21:59:08;40.30;;;22.13;;
11572;SDS011;5842;52.426;4.886;2023-01-24T22:01:35;41.10;;;21.70;;
11572;SDS011;5842;52.426;4.886;2023-01-24T22:04:03;44.80;;;22.90;;
11572;SDS011;5842;52.426;4.886;2023-01-24T22:06:30;41.57;;;21.93;;
11572;SDS011;5842;52.426;4.886;2023-01-24T22:08:57;43.20;;;23.17;;
11572;SDS011;5842;52.426;4.886;2023-01-24T22:11:26;41.87;;;22.20;;
11572;SDS011;5842;52.426;4.886;2023-01-24T22:14:04;45.00;;;23.90;;
11572;SDS011;5842;52.426;4.886;2023-01-24T22:16:52;42.77;;;22.37;;
11572;SDS011;5842;52.426;4.886;2023-01-24T22:51:33;47.23;;;23.70;;
11572;SDS011;5842;52.426;4.886;2023-01-24T22:54:03;47.57;;;24.30;;
11572;SDS011;5842;52.426;4.886;2023-01-24T22:56:55;48.07;;;23.83;;
11572;SDS011;5842;52.426;4.886;2023-01-24T22:59:44;43.20;;;22.67;;
11572;SDS011;5842;52.426;4.886;2023-01-24T23:02:48;44.83;;;22.87;;
11572;SDS011;5842;52.426;4.886;2023-01-24T23:12:42;44.50;;;23.30;;
11572;SDS011;5842;52.426;4.886;2023-01-24T23:15:49;47.83;;;24.20;;
11572;SDS011;5842;52.426;4.886;2023-01-24T23:35:38;49.37;;;24.40;;
11572;SDS011;5842;52.426;4.886;2023-01-24T23:47:55;49.47;;;24.73;;
